sensor_id;sensor_type;location;lat;lon;timestamp;P1;durP1;ratioP1;P2;durP2;ratioP2
13741;SDS011;8461;52.356;10.704;2022-07-24T00:00:49;3.53;;;1.10;;
13741;SDS011;8461;52.356;10.704;2022-07-24T00:03:15;1.87;;;0.83;;
13741;SDS011;8461;52.356;10.704;2022-07-24T00:05:41;3.33;;;0.93;;
13741;SDS011;8461;52.356;10.704;2022-07-24T00:08:06;2.13;;;0.80;;
13741;SDS011;8461;52.356;10.704;2022-07-24T00:10:32;1.63;;;0.70;;
13741;SDS011;8461;52.356;10.704;2022-07-24T00:12:57;1.33;;;0.60;;
13741;SDS011;8461;52.356;10.704;2022-07-24T00:15:23;1.40;;;0.70;;
13741;SDS011;8461;52.356;10.704;2022-07-24T00:17:49;1.20;;;0.90;;
13741;SDS011;8461;52.356;10.704;2022-07-24T00:20:14;3.47;;;0.83;;
13741;SDS011;8461;52.356;10.704;2022-07-24T00:22:40;0.90;;;0.80;;
13741;SDS011;8461;52.356;10.704;2022-07-24T00:25:05;4.30;;;1.00;;
13741;SDS011;8461;52.356;10.704;2022-07-24T00:27:31;1.93;;;0.80;;
13741;SDS011;8461;52.356;10.704;2022-07-24T00:29:57;3.13;;;1.10;;
13741;SDS011;8461;52.356;10.704;2022-07-24T00:32:22;3.17;;;1.77;;
13741;SDS011;8461;52.356;10.704;2022-07-24T00:34:48;2.30;;;1.40;;
13741;SDS011;8461;52.356;10.704;2022-07-24T00:37:13;3.93;;;1.50;;
13741;SDS011;8461;52.356;10.704;2022-07-24T00:39:39;6.37;;;1.10;;
13741;SDS011;8461;52.356;10.704;2022-07-24T00:42:04;3.40;;;1.27;;
13741;SDS011;8461;52.356;10.704;2022-07-24T00:44:30;2.67;;;1.20;;
13741;SDS011;8461;52.356;10.704;2022-07-24T00:46:56;1.90;;;1.43;;
13741;SDS011;8461;52.356;10.704;2022-07-24T00:49:21;3.17;;;1.20;;
13741;SDS011;8461;52.356;10.704;2022-07-24T00:51:48;1.87;;;1.27;;
13741;SDS011;8461;52.356;10.704;2022-07-24T00:54:16;1.83;;;1.47;;
13741;SDS011;8461;52.356;10.704;2022-07-24T00:56:44;1.93;;;1.20;;
13741;SDS011;8461;52.356;10.704;2022-07-24T00:59:11;2.60;;;1.10;;
13741;SDS011;8461;52.356;10.704;2022-07-24T01:01:37;2.57;;;0.93;;
13741;SDS011;8461;52.356;10.704;2022-07-24T01:04:03;1.93;;;1.20;;
13741;SDS011;8461;52.356;10.704;2022-07-24T01:06:29;1.40;;;1.00;;
13741;SDS011;8461;52.356;10.704;2022-07-24T01:08:54;2.57;;;1.17;;
13741;SDS011;8461;52.356;10.704;2022-07-24T01:11:20;1.23;;;1.07;;
13741;SDS011;8461;52.356;10.704;2022-07-24T01:13:47;3.30;;;0.90;;
13741;SDS011;8461;52.356;10.704;2022-07-24T01:16:13;2.03;;;1.20;;
13741;SDS011;8461;52.356;10.704;2022-07-24T01:18:39;1.20;;;0.90;;
13741;SDS011;8461;52.356;10.704;2022-07-24T01:21:05;2.43;;;1.00;;
13741;SDS011;8461;52.356;10.704;2022-07-24T01:23:32;1.63;;;0.83;;
13741;SDS011;8461;52.356;10.704;2022-07-24T01:25:57;2.17;;;1.07;;
13741;SDS011;8461;52.356;10.704;2022-07-24T01:28:23;5.07;;;0.70;;
13741;SDS011;8461;52.356;10.704;2022-07-24T01:30:49;0.80;;;0.67;;
13741;SDS011;8461;52.356;10.704;2022-07-24T01:33:15;2.20;;;0.90;;
13741;SDS011;8461;52.356;10.704;2022-07-24T01:35:41;4.57;;;1.10;;
13741;SDS011;8461;52.356;10.704;2022-07-24T01:38:08;2.80;;;1.53;;
13741;SDS011;8461;52.356;10.704;2022-07-24T01:40:34;1.43;;;1.00;;
13741;SDS011;8461;52.356;10.704;2022-07-24T01:43:00;3.77;;;1.27;;
13741;SDS011;8461;52.356;10.704;2022-07-24T01:45:26;1.77;;;1.00;;
13741;SDS011;8461;52.356;10.704;2022-07-24T01:47:51;0.90;;;0.67;;
13741;SDS011;8461;52.356;10.704;2022-07-24T01:50:17;2.60;;;0.97;;
13741;SDS011;8461;52.356;10.704;2022-07-24T01:52:43;3.00;;;0.90;;
13741;SDS011;8461;52.356;10.704;2022-07-24T01:55:08;2.03;;;0.80;;
13741;SDS011;8461;52.356;10.704;2022-07-24T01:57:34;0.83;;;0.70;;
13741;SDS011;8461;52.356;10.704;2022-07-24T02:00:00;1.73;;;0.90;;
13741;SDS011;8461;52.356;10.704;2022-07-24T02:02:26;1.47;;;0.90;;
13741;SDS011;8461;52.356;10.704;2022-07-24T02:04:52;0.87;;;0.60;;
13741;SDS011;8461;52.356;10.704;2022-07-24T02:07:18;1.23;;;1.00;;
13741;SDS011;8461;52.356;10.704;2022-07-24T02:09:44;1.50;;;0.97;;
13741;SDS011;8461;52.356;10.704;2022-07-24T02:12:10;1.10;;;1.00;;
13741;SDS011;8461;52.356;10.704;2022-07-24T02:14:36;3.67;;;0.77;;
13741;SDS011;8461;52.356;10.704;2022-07-24T02:17:01;1.97;;;1.00;;
13741;SDS011;8461;52.356;10.704;2022-07-24T02:19:27;1.80;;;0.97;;
13741;SDS011;8461;52.356;10.704;2022-07-24T02:21:53;2.13;;;1.00;;
13741;SDS011;8461;52.356;10.704;2022-07-24T02:24:18;1.70;;;0.90;;
13741;SDS011;8461;52.356;10.704;2022-07-24T02:26:44;1.50;;;1.10;;
13741;SDS011;8461;52.356;10.704;2022-07-24T02:29:09;2.40;;;1.40;;
13741;SDS011;8461;52.356;10.704;2022-07-24T02:31:35;3.23;;;1.57;;
13741;SDS011;8461;52.356;10.704;2022-07-24T02:34:00;3.40;;;1.17;;
13741;SDS011;8461;52.356;10.704;2022-07-24T02:36:26;2.30;;;1.13;;
13741;SDS011;8461;52.356;10.704;2022-07-24T02:38:52;1.70;;;1.10;;
13741;SDS011;8461;52.356;10.704;2022-07-24T02:41:17;1.57;;;0.93;;
13741;SDS011;8461;52.356;10.704;2022-07-24T02:43:43;1.63;;;1.30;;
13741;SDS011;8461;52.356;10.704;2022-07-24T02:46:09;2.70;;;1.20;;
13741;SDS011;8461;52.356;10.704;2022-07-24T02:48:35;1.30;;;1.10;;
13741;SDS011;8461;52.356;10.704;2022-07-24T02:51:01;1.20;;;0.80;;
13741;SDS011;8461;52.356;10.704;2022-07-24T02:53:27;2.27;;;0.90;;
13741;SDS011;8461;52.356;10.704;2022-07-24T02:55:52;1.03;;;0.80;;
13741;SDS011;8461;52.356;10.704;2022-07-24T02:58:18;1.93;;;0.97;;
13741;SDS011;8461;52.356;10.704;2022-07-24T03:00:44;2.90;;;0.97;;
13741;SDS011;8461;52.356;10.704;2022-07-24T03:03:09;2.10;;;1.00;;
13741;SDS011;8461;52.356;10.704;2022-07-24T03:05:35;2.13;;;1.10;;
13741;SDS011;8461;52.356;10.704;2022-07-24T03:08:00;1.37;;;0.97;;
13741;SDS011;8461;52.356;10.704;2022-07-24T03:10:26;1.30;;;1.10;;
13741;SDS011;8461;52.356;10.704;2022-07-24T03:12:51;2.33;;;1.17;;
13741;SDS011;8461;52.356;10.704;2022-07-24T03:15:17;2.67;;;1.23;;
13741;SDS011;8461;52.356;10.704;2022-07-24T03:17:49;1.30;;;1.20;;
13741;SDS011;8461;52.356;10.704;2022-07-24T03:20:19;2.20;;;1.43;;
13741;SDS011;8461;52.356;10.704;2022-07-24T03:22:46;2.43;;;1.70;;
13741;SDS011;8461;52.356;10.704;2022-07-24T03:25:12;4.23;;;1.43;;
13741;SDS011;8461;52.356;10.704;2022-07-24T03:27:38;4.50;;;1.50;;
13741;SDS011;8461;52.356;10.704;2022-07-24T03:30:04;2.20;;;1.70;;
13741;SDS011;8461;52.356;10.704;2022-07-24T03:32:31;1.33;;;0.80;;
13741;SDS011;8461;52.356;10.704;2022-07-24T03:34:57;2.43;;;1.20;;
13741;SDS011;8461;52.356;10.704;2022-07-24T03:37:22;1.07;;;0.97;;
13741;SDS011;8461;52.356;10.704;2022-07-24T03:39:48;1.73;;;1.07;;
13741;SDS011;8461;52.356;10.704;2022-07-24T03:42:14;1.27;;;0.87;;
13741;SDS011;8461;52.356;10.704;2022-07-24T03:44:39;1.40;;;1.30;;
13741;SDS011;8461;52.356;10.704;2022-07-24T03:47:05;3.33;;;1.07;;
13741;SDS011;8461;52.356;10.704;2022-07-24T03:49:30;1.00;;;0.87;;
13741;SDS011;8461;52.356;10.704;2022-07-24T03:51:56;1.63;;;1.20;;
13741;SDS011;8461;52.356;10.704;2022-07-24T03:54:21;1.40;;;1.20;;
13741;SDS011;8461;52.356;10.704;2022-07-24T03:56:47;1.30;;;1.10;;
13741;SDS011;8461;52.356;10.704;2022-07-24T03:59:13;1.23;;;1.03;;
13741;SDS011;8461;52.356;10.704;2022-07-24T04:01:39;2.20;;;1.60;;
13741;SDS011;8461;52.356;10.704;2022-07-24T04:04:04;1.37;;;0.90;;
13741;SDS011;8461;52.356;10.704;2022-07-24T04:06:31;1.40;;;1.30;;
13741;SDS011;8461;52.356;10.704;2022-07-24T04:08:58;1.30;;;1.20;;
13741;SDS011;8461;52.356;10.704;2022-07-24T04:11:23;2.23;;;1.13;;
13741;SDS011;8461;52.356;10.704;2022-07-24T04:13:49;1.53;;;1.23;;
13741;SDS011;8461;52.356;10.704;2022-07-24T04:16:15;3.23;;;1.70;;
13741;SDS011;8461;52.356;10.704;2022-07-24T04:18:40;2.87;;;1.47;;
13741;SDS011;8461;52.356;10.704;2022-07-24T04:21:06;3.63;;;1.73;;
13741;SDS011;8461;52.356;10.704;2022-07-24T04:23:32;2.47;;;1.60;;
13741;SDS011;8461;52.356;10.704;2022-07-24T04:25:57;1.33;;;1.23;;
13741;SDS011;8461;52.356;10.704;2022-07-24T04:28:23;2.43;;;1.47;;
13741;SDS011;8461;52.356;10.704;2022-07-24T04:30:49;1.87;;;1.30;;
13741;SDS011;8461;52.356;10.704;2022-07-24T04:33:14;2.63;;;0.90;;
13741;SDS011;8461;52.356;10.704;2022-07-24T04:35:40;1.30;;;1.20;;
13741;SDS011;8461;52.356;10.704;2022-07-24T04:38:05;3.70;;;1.20;;
13741;SDS011;8461;52.356;10.704;2022-07-24T04:40:31;2.20;;;1.03;;
13741;SDS011;8461;52.356;10.704;2022-07-24T04:42:56;2.77;;;1.10;;
13741;SDS011;8461;52.356;10.704;2022-07-24T04:45:22;1.20;;;1.10;;
13741;SDS011;8461;52.356;10.704;2022-07-24T04:47:48;2.17;;;1.27;;
13741;SDS011;8461;52.356;10.704;2022-07-24T04:50:13;2.27;;;1.13;;
13741;SDS011;8461;52.356;10.704;2022-07-24T04:52:39;2.07;;;1.53;;
13741;SDS011;8461;52.356;10.704;2022-07-24T04:55:05;3.83;;;1.60;;
13741;SDS011;8461;52.356;10.704;2022-07-24T04:57:30;2.93;;;1.23;;
13741;SDS011;8461;52.356;10.704;2022-07-24T04:59:56;4.73;;;1.50;;
13741;SDS011;8461;52.356;10.704;2022-07-24T05:02:21;3.53;;;1.50;;
13741;SDS011;8461;52.356;10.704;2022-07-24T05:04:47;1.40;;;1.00;;
13741;SDS011;8461;52.356;10.704;2022-07-24T05:07:13;1.70;;;1.27;;
13741;SDS011;8461;52.356;10.704;2022-07-24T05:09:38;1.60;;;1.33;;
13741;SDS011;8461;52.356;10.704;2022-07-24T05:12:04;2.33;;;1.40;;
13741;SDS011;8461;52.356;10.704;2022-07-24T05:14:29;2.83;;;1.30;;
13741;SDS011;8461;52.356;10.704;2022-07-24T05:16:55;1.53;;;1.10;;
13741;SDS011;8461;52.356;10.704;2022-07-24T05:19:20;2.70;;;1.10;;
13741;SDS011;8461;52.356;10.704;2022-07-24T05:21:46;2.20;;;1.33;;
13741;SDS011;8461;52.356;10.704;2022-07-24T05:24:12;4.93;;;1.40;;
13741;SDS011;8461;52.356;10.704;2022-07-24T05:26:37;5.43;;;1.50;;
13741;SDS011;8461;52.356;10.704;2022-07-24T05:29:03;3.93;;;1.40;;
13741;SDS011;8461;52.356;10.704;2022-07-24T05:31:31;3.50;;;1.60;;
13741;SDS011;8461;52.356;10.704;2022-07-24T05:33:57;1.50;;;1.30;;
13741;SDS011;8461;52.356;10.704;2022-07-24T05:36:23;2.37;;;1.47;;
13741;SDS011;8461;52.356;10.704;2022-07-24T05:38:49;2.30;;;1.30;;
13741;SDS011;8461;52.356;10.704;2022-07-24T05:41:15;2.17;;;1.20;;
13741;SDS011;8461;52.356;10.704;2022-07-24T05:43:40;1.73;;;1.50;;
13741;SDS011;8461;52.356;10.704;2022-07-24T05:46:06;1.20;;;1.00;;
13741;SDS011;8461;52.356;10.704;2022-07-24T05:48:32;2.20;;;1.23;;
13741;SDS011;8461;52.356;10.704;2022-07-24T05:50:57;1.13;;;1.00;;
13741;SDS011;8461;52.356;10.704;2022-07-24T05:53:23;3.00;;;1.30;;
13741;SDS011;8461;52.356;10.704;2022-07-24T05:55:49;1.47;;;1.10;;
13741;SDS011;8461;52.356;10.704;2022-07-24T05:58:16;3.20;;;1.30;;
13741;SDS011;8461;52.356;10.704;2022-07-24T06:00:42;4.50;;;1.53;;
13741;SDS011;8461;52.356;10.704;2022-07-24T06:03:08;4.87;;;1.17;;
13741;SDS011;8461;52.356;10.704;2022-07-24T06:05:33;2.20;;;1.17;;
13741;SDS011;8461;52.356;10.704;2022-07-24T06:07:59;5.73;;;2.23;;
13741;SDS011;8461;52.356;10.704;2022-07-24T06:10:24;3.30;;;1.27;;
13741;SDS011;8461;52.356;10.704;2022-07-24T06:12:50;6.23;;;1.90;;
13741;SDS011;8461;52.356;10.704;2022-07-24T06:15:15;1.20;;;0.90;;
13741;SDS011;8461;52.356;10.704;2022-07-24T06:17:41;1.57;;;1.10;;
13741;SDS011;8461;52.356;10.704;2022-07-24T06:20:07;1.20;;;0.83;;
13741;SDS011;8461;52.356;10.704;2022-07-24T06:22:34;1.30;;;0.83;;
13741;SDS011;8461;52.356;10.704;2022-07-24T06:24:59;2.07;;;1.00;;
13741;SDS011;8461;52.356;10.704;2022-07-24T06:27:25;2.20;;;1.17;;
13741;SDS011;8461;52.356;10.704;2022-07-24T06:29:51;2.83;;;1.10;;
13741;SDS011;8461;52.356;10.704;2022-07-24T06:32:16;0.80;;;0.80;;
13741;SDS011;8461;52.356;10.704;2022-07-24T06:34:42;1.90;;;1.00;;
13741;SDS011;8461;52.356;10.704;2022-07-24T06:37:07;1.17;;;0.90;;
13741;SDS011;8461;52.356;10.704;2022-07-24T06:39:33;1.60;;;0.80;;
13741;SDS011;8461;52.356;10.704;2022-07-24T06:41:58;2.47;;;0.83;;
13741;SDS011;8461;52.356;10.704;2022-07-24T06:44:24;1.10;;;0.90;;
13741;SDS011;8461;52.356;10.704;2022-07-24T06:46:50;2.80;;;1.00;;
13741;SDS011;8461;52.356;10.704;2022-07-24T06:49:15;1.50;;;0.97;;
13741;SDS011;8461;52.356;10.704;2022-07-24T06:51:41;1.60;;;1.00;;
13741;SDS011;8461;52.356;10.704;2022-07-24T06:54:06;0.97;;;0.70;;
13741;SDS011;8461;52.356;10.704;2022-07-24T06:56:32;1.60;;;1.00;;
13741;SDS011;8461;52.356;10.704;2022-07-24T06:58:58;2.00;;;0.80;;
13741;SDS011;8461;52.356;10.704;2022-07-24T07:01:24;0.87;;;0.70;;
13741;SDS011;8461;52.356;10.704;2022-07-24T07:03:51;3.30;;;0.90;;
13741;SDS011;8461;52.356;10.704;2022-07-24T07:06:18;1.47;;;0.90;;
13741;SDS011;8461;52.356;10.704;2022-07-24T07:08:43;1.43;;;0.77;;
13741;SDS011;8461;52.356;10.704;2022-07-24T07:11:09;3.23;;;0.90;;
13741;SDS011;8461;52.356;10.704;2022-07-24T07:13:35;2.17;;;1.10;;
13741;SDS011;8461;52.356;10.704;2022-07-24T07:16:00;2.40;;;1.00;;
13741;SDS011;8461;52.356;10.704;2022-07-24T07:18:26;2.10;;;0.87;;
13741;SDS011;8461;52.356;10.704;2022-07-24T07:20:51;2.07;;;1.10;;
13741;SDS011;8461;52.356;10.704;2022-07-24T07:23:20;2.10;;;0.80;;
13741;SDS011;8461;52.356;10.704;2022-07-24T07:25:46;2.53;;;0.90;;
13741;SDS011;8461;52.356;10.704;2022-07-24T07:28:12;1.77;;;0.70;;
13741;SDS011;8461;52.356;10.704;2022-07-24T07:30:37;3.07;;;0.70;;
13741;SDS011;8461;52.356;10.704;2022-07-24T07:33:03;2.27;;;0.70;;
13741;SDS011;8461;52.356;10.704;2022-07-24T07:35:28;2.97;;;0.80;;
13741;SDS011;8461;52.356;10.704;2022-07-24T07:37:54;2.27;;;1.23;;
13741;SDS011;8461;52.356;10.704;2022-07-24T07:40:19;1.00;;;0.80;;
13741;SDS011;8461;52.356;10.704;2022-07-24T07:42:45;1.50;;;0.90;;
13741;SDS011;8461;52.356;10.704;2022-07-24T07:45:11;3.00;;;1.00;;
13741;SDS011;8461;52.356;10.704;2022-07-24T07:47:37;1.60;;;0.80;;
13741;SDS011;8461;52.356;10.704;2022-07-24T07:50:02;2.60;;;1.00;;
13741;SDS011;8461;52.356;10.704;2022-07-24T07:52:28;3.13;;;1.00;;
13741;SDS011;8461;52.356;10.704;2022-07-24T07:54:54;3.47;;;1.07;;
13741;SDS011;8461;52.356;10.704;2022-07-24T07:57:20;1.03;;;0.93;;
13741;SDS011;8461;52.356;10.704;2022-07-24T07:59:45;1.63;;;1.00;;
13741;SDS011;8461;52.356;10.704;2022-07-24T08:02:11;1.53;;;0.83;;
13741;SDS011;8461;52.356;10.704;2022-07-24T08:04:37;1.83;;;1.00;;
13741;SDS011;8461;52.356;10.704;2022-07-24T08:07:02;1.10;;;1.00;;
13741;SDS011;8461;52.356;10.704;2022-07-24T08:09:28;3.13;;;1.03;;
13741;SDS011;8461;52.356;10.704;2022-07-24T08:11:53;1.93;;;0.93;;
13741;SDS011;8461;52.356;10.704;2022-07-24T08:14:19;2.13;;;0.90;;
13741;SDS011;8461;52.356;10.704;2022-07-24T08:16:44;1.70;;;1.00;;
13741;SDS011;8461;52.356;10.704;2022-07-24T08:19:10;3.17;;;1.00;;
13741;SDS011;8461;52.356;10.704;2022-07-24T08:21:35;2.13;;;1.10;;
13741;SDS011;8461;52.356;10.704;2022-07-24T08:24:02;2.73;;;1.23;;
13741;SDS011;8461;52.356;10.704;2022-07-24T08:26:27;4.10;;;1.10;;
13741;SDS011;8461;52.356;10.704;2022-07-24T08:28:55;2.27;;;1.33;;
13741;SDS011;8461;52.356;10.704;2022-07-24T08:31:23;3.43;;;1.10;;
13741;SDS011;8461;52.356;10.704;2022-07-24T08:33:51;1.70;;;1.23;;
13741;SDS011;8461;52.356;10.704;2022-07-24T08:36:17;2.20;;;1.20;;
13741;SDS011;8461;52.356;10.704;2022-07-24T08:38:42;2.93;;;1.23;;
13741;SDS011;8461;52.356;10.704;2022-07-24T08:41:08;3.13;;;1.30;;
13741;SDS011;8461;52.356;10.704;2022-07-24T08:43:34;2.07;;;1.03;;
13741;SDS011;8461;52.356;10.704;2022-07-24T08:46:00;2.03;;;1.00;;
13741;SDS011;8461;52.356;10.704;2022-07-24T08:48:27;1.50;;;1.13;;
13741;SDS011;8461;52.356;10.704;2022-07-24T08:50:53;2.10;;;1.10;;
13741;SDS011;8461;52.356;10.704;2022-07-24T08:53:20;2.30;;;1.67;;
13741;SDS011;8461;52.356;10.704;2022-07-24T08:55:47;5.47;;;1.47;;
13741;SDS011;8461;52.356;10.704;2022-07-24T08:58:13;3.00;;;1.70;;
13741;SDS011;8461;52.356;10.704;2022-07-24T09:00:39;5.97;;;1.40;;
13741;SDS011;8461;52.356;10.704;2022-07-24T09:03:06;2.90;;;1.37;;
13741;SDS011;8461;52.356;10.704;2022-07-24T09:05:32;1.97;;;1.47;;
13741;SDS011;8461;52.356;10.704;2022-07-24T09:08:06;3.80;;;1.50;;
13741;SDS011;8461;52.356;10.704;2022-07-24T09:10:33;3.00;;;1.50;;
13741;SDS011;8461;52.356;10.704;2022-07-24T09:12:59;2.60;;;1.63;;
13741;SDS011;8461;52.356;10.704;2022-07-24T09:15:47;3.10;;;2.00;;
13741;SDS011;8461;52.356;10.704;2022-07-24T09:18:30;2.47;;;1.90;;
13741;SDS011;8461;52.356;10.704;2022-07-24T09:21:00;2.77;;;2.00;;
13741;SDS011;8461;52.356;10.704;2022-07-24T09:23:37;4.00;;;1.97;;
13741;SDS011;8461;52.356;10.704;2022-07-24T09:26:03;3.33;;;1.80;;
13741;SDS011;8461;52.356;10.704;2022-07-24T09:28:29;3.20;;;2.13;;
13741;SDS011;8461;52.356;10.704;2022-07-24T09:31:00;4.60;;;1.70;;
13741;SDS011;8461;52.356;10.704;2022-07-24T09:33:27;4.03;;;1.70;;
13741;SDS011;8461;52.356;10.704;2022-07-24T09:36:00;5.50;;;2.17;;
13741;SDS011;8461;52.356;10.704;2022-07-24T09:38:43;3.97;;;1.93;;
13741;SDS011;8461;52.356;10.704;2022-07-24T09:41:11;2.77;;;1.93;;
13741;SDS011;8461;52.356;10.704;2022-07-24T09:43:37;2.43;;;2.17;;
13741;SDS011;8461;52.356;10.704;2022-07-24T09:46:04;4.63;;;2.43;;
13741;SDS011;8461;52.356;10.704;2022-07-24T09:48:32;5.00;;;2.30;;
13741;SDS011;8461;52.356;10.704;2022-07-24T09:50:59;3.50;;;2.10;;
13741;SDS011;8461;52.356;10.704;2022-07-24T09:53:28;3.10;;;2.17;;
13741;SDS011;8461;52.356;10.704;2022-07-24T09:55:59;6.77;;;2.37;;
13741;SDS011;8461;52.356;10.704;2022-07-24T09:58:26;3.83;;;2.70;;
13741;SDS011;8461;52.356;10.704;2022-07-24T10:00:54;3.87;;;2.30;;
13741;SDS011;8461;52.356;10.704;2022-07-24T10:03:23;2.50;;;2.13;;
13741;SDS011;8461;52.356;10.704;2022-07-24T10:05:50;3.73;;;2.53;;
13741;SDS011;8461;52.356;10.704;2022-07-24T10:08:19;4.33;;;1.93;;
13741;SDS011;8461;52.356;10.704;2022-07-24T10:10:46;5.00;;;2.20;;
13741;SDS011;8461;52.356;10.704;2022-07-24T10:13:14;3.17;;;2.30;;
13741;SDS011;8461;52.356;10.704;2022-07-24T10:15:50;6.53;;;2.90;;
13741;SDS011;8461;52.356;10.704;2022-07-24T10:18:19;4.37;;;2.00;;
13741;SDS011;8461;52.356;10.704;2022-07-24T10:20:47;4.20;;;2.63;;
13741;SDS011;8461;52.356;10.704;2022-07-24T10:23:23;2.53;;;2.27;;
13741;SDS011;8461;52.356;10.704;2022-07-24T10:28:39;3.57;;;1.97;;
13741;SDS011;8461;52.356;10.704;2022-07-24T10:31:07;5.03;;;2.45;;
13741;SDS011;8461;52.356;10.704;2022-07-24T10:33:38;3.70;;;2.10;;
13741;SDS011;8461;52.356;10.704;2022-07-24T10:36:22;3.05;;;1.98;;
13741;SDS011;8461;52.356;10.704;2022-07-24T10:38:59;3.10;;;2.03;;
13741;SDS011;8461;52.356;10.704;2022-07-24T10:41:28;4.40;;;2.20;;
13741;SDS011;8461;52.356;10.704;2022-07-24T10:44:12;3.85;;;2.20;;
13741;SDS011;8461;52.356;10.704;2022-07-24T10:46:58;2.40;;;1.80;;
13741;SDS011;8461;52.356;10.704;2022-07-24T10:52:03;2.50;;;1.90;;
13741;SDS011;8461;52.356;10.704;2022-07-24T10:54:29;2.75;;;2.00;;
13741;SDS011;8461;52.356;10.704;2022-07-24T10:56:54;3.22;;;2.22;;
13741;SDS011;8461;52.356;10.704;2022-07-24T10:59:34;2.60;;;2.17;;
13741;SDS011;8461;52.356;10.704;2022-07-24T11:02:23;3.38;;;2.30;;
13741;SDS011;8461;52.356;10.704;2022-07-24T11:04:48;3.80;;;2.38;;
13741;SDS011;8461;52.356;10.704;2022-07-24T11:10:54;3.33;;;1.95;;
13741;SDS011;8461;52.356;10.704;2022-07-24T11:21:30;5.85;;;1.90;;
13741;SDS011;8461;52.356;10.704;2022-07-24T11:29:18;3.47;;;2.10;;
13741;SDS011;8461;52.356;10.704;2022-07-24T11:31:55;3.78;;;2.22;;
13741;SDS011;8461;52.356;10.704;2022-07-24T11:34:29;3.78;;;2.50;;
13741;SDS011;8461;52.356;10.704;2022-07-24T11:36:56;2.65;;;2.28;;
13741;SDS011;8461;52.356;10.704;2022-07-24T11:39:29;3.10;;;1.80;;
13741;SDS011;8461;52.356;10.704;2022-07-24T11:41:59;2.92;;;1.77;;
13741;SDS011;8461;52.356;10.704;2022-07-24T11:44:30;2.50;;;1.83;;
13741;SDS011;8461;52.356;10.704;2022-07-24T11:47:00;2.72;;;1.88;;
13741;SDS011;8461;52.356;10.704;2022-07-24T11:49:42;2.65;;;1.98;;
13741;SDS011;8461;52.356;10.704;2022-07-24T11:52:14;2.35;;;1.90;;
13741;SDS011;8461;52.356;10.704;2022-07-24T11:54:48;3.08;;;1.73;;
13741;SDS011;8461;52.356;10.704;2022-07-24T11:57:17;2.55;;;1.65;;
13741;SDS011;8461;52.356;10.704;2022-07-24T11:59:47;3.22;;;2.15;;
13741;SDS011;8461;52.356;10.704;2022-07-24T12:02:13;2.42;;;1.88;;
13741;SDS011;8461;52.356;10.704;2022-07-24T12:04:40;2.63;;;2.33;;
13741;SDS011;8461;52.356;10.704;2022-07-24T12:07:07;1.98;;;1.77;;
13741;SDS011;8461;52.356;10.704;2022-07-24T12:12:17;4.07;;;1.70;;
13741;SDS011;8461;52.356;10.704;2022-07-24T12:14:43;5.25;;;1.80;;
13741;SDS011;8461;52.356;10.704;2022-07-24T12:17:08;2.40;;;2.17;;
13741;SDS011;8461;52.356;10.704;2022-07-24T12:19:34;4.78;;;1.90;;
13741;SDS011;8461;52.356;10.704;2022-07-24T12:21:59;2.30;;;1.70;;
13741;SDS011;8461;52.356;10.704;2022-07-24T12:24:25;2.13;;;1.60;;
13741;SDS011;8461;52.356;10.704;2022-07-24T12:26:52;3.40;;;2.00;;
13741;SDS011;8461;52.356;10.704;2022-07-24T12:29:21;2.75;;;1.80;;
13741;SDS011;8461;52.356;10.704;2022-07-24T12:31:48;2.17;;;1.77;;
13741;SDS011;8461;52.356;10.704;2022-07-24T12:34:17;4.53;;;1.90;;
13741;SDS011;8461;52.356;10.704;2022-07-24T12:36:43;1.52;;;1.42;;
13741;SDS011;8461;52.356;10.704;2022-07-24T12:39:10;2.83;;;1.50;;
13741;SDS011;8461;52.356;10.704;2022-07-24T12:41:44;2.13;;;1.60;;
13741;SDS011;8461;52.356;10.704;2022-07-24T12:44:12;3.85;;;1.85;;
13741;SDS011;8461;52.356;10.704;2022-07-24T12:46:39;1.45;;;1.30;;
13741;SDS011;8461;52.356;10.704;2022-07-24T12:49:07;3.30;;;1.35;;
13741;SDS011;8461;52.356;10.704;2022-07-24T12:57:00;5.63;;;1.40;;
13741;SDS011;8461;52.356;10.704;2022-07-24T12:59:32;2.10;;;1.38;;
13741;SDS011;8461;52.356;10.704;2022-07-24T13:02:04;1.30;;;1.10;;
13741;SDS011;8461;52.356;10.704;2022-07-24T13:04:31;4.53;;;1.52;;
13741;SDS011;8461;52.356;10.704;2022-07-24T13:06:59;1.33;;;1.10;;
13741;SDS011;8461;52.356;10.704;2022-07-24T13:09:26;1.63;;;1.50;;
13741;SDS011;8461;52.356;10.704;2022-07-24T13:11:53;2.65;;;1.35;;
13741;SDS011;8461;52.356;10.704;2022-07-24T13:14:20;2.05;;;1.50;;
13741;SDS011;8461;52.356;10.704;2022-07-24T13:16:48;3.92;;;1.38;;
13741;SDS011;8461;52.356;10.704;2022-07-24T13:19:15;1.85;;;1.13;;
13741;SDS011;8461;52.356;10.704;2022-07-24T13:21:42;2.28;;;1.23;;
13741;SDS011;8461;52.356;10.704;2022-07-24T13:24:09;1.27;;;1.10;;
13741;SDS011;8461;52.356;10.704;2022-07-24T13:26:36;3.65;;;1.27;;
13741;SDS011;8461;52.356;10.704;2022-07-24T13:29:03;2.33;;;1.42;;
13741;SDS011;8461;52.356;10.704;2022-07-24T13:31:30;3.70;;;1.40;;
13741;SDS011;8461;52.356;10.704;2022-07-24T13:33:55;2.17;;;1.40;;
13741;SDS011;8461;52.356;10.704;2022-07-24T13:36:21;1.73;;;1.20;;
13741;SDS011;8461;52.356;10.704;2022-07-24T13:38:47;2.10;;;1.20;;
13741;SDS011;8461;52.356;10.704;2022-07-24T13:41:13;3.13;;;1.40;;
13741;SDS011;8461;52.356;10.704;2022-07-24T13:43:39;2.15;;;1.30;;
13741;SDS011;8461;52.356;10.704;2022-07-24T13:46:05;1.52;;;1.17;;
13741;SDS011;8461;52.356;10.704;2022-07-24T13:48:32;3.45;;;1.42;;
13741;SDS011;8461;52.356;10.704;2022-07-24T13:50:58;1.83;;;1.25;;
13741;SDS011;8461;52.356;10.704;2022-07-24T13:53:23;2.10;;;1.40;;
13741;SDS011;8461;52.356;10.704;2022-07-24T13:55:49;1.42;;;1.13;;
13741;SDS011;8461;52.356;10.704;2022-07-24T13:58:15;2.58;;;1.70;;
13741;SDS011;8461;52.356;10.704;2022-07-24T14:00:40;3.65;;;1.70;;
13741;SDS011;8461;52.356;10.704;2022-07-24T14:03:06;1.73;;;1.55;;
13741;SDS011;8461;52.356;10.704;2022-07-24T14:05:32;1.45;;;1.35;;
13741;SDS011;8461;52.356;10.704;2022-07-24T14:07:57;2.08;;;1.27;;
13741;SDS011;8461;52.356;10.704;2022-07-24T14:10:23;1.88;;;1.13;;
13741;SDS011;8461;52.356;10.704;2022-07-24T14:12:50;3.17;;;1.58;;
13741;SDS011;8461;52.356;10.704;2022-07-24T14:15:15;2.08;;;1.55;;
13741;SDS011;8461;52.356;10.704;2022-07-24T14:17:42;2.00;;;1.58;;
13741;SDS011;8461;52.356;10.704;2022-07-24T14:20:09;3.10;;;1.50;;
13741;SDS011;8461;52.356;10.704;2022-07-24T14:22:35;3.28;;;1.60;;
13741;SDS011;8461;52.356;10.704;2022-07-24T14:25:02;1.77;;;1.52;;
13741;SDS011;8461;52.356;10.704;2022-07-24T14:27:30;2.70;;;1.33;;
13741;SDS011;8461;52.356;10.704;2022-07-24T14:29:55;2.25;;;1.60;;
13741;SDS011;8461;52.356;10.704;2022-07-24T14:32:21;1.85;;;1.33;;
13741;SDS011;8461;52.356;10.704;2022-07-24T14:34:47;2.88;;;1.63;;
13741;SDS011;8461;52.356;10.704;2022-07-24T14:37:12;2.03;;;1.60;;
13741;SDS011;8461;52.356;10.704;2022-07-24T14:39:38;2.75;;;1.50;;
13741;SDS011;8461;52.356;10.704;2022-07-24T14:42:03;2.33;;;1.52;;
13741;SDS011;8461;52.356;10.704;2022-07-24T14:44:29;2.38;;;1.80;;
13741;SDS011;8461;52.356;10.704;2022-07-24T14:46:55;5.22;;;1.90;;
13741;SDS011;8461;52.356;10.704;2022-07-24T14:49:20;4.18;;;1.63;;
13741;SDS011;8461;52.356;10.704;2022-07-24T14:51:46;3.05;;;1.58;;
13741;SDS011;8461;52.356;10.704;2022-07-24T14:54:11;1.60;;;1.40;;
13741;SDS011;8461;52.356;10.704;2022-07-24T14:56:38;2.47;;;1.60;;
13741;SDS011;8461;52.356;10.704;2022-07-24T14:59:04;1.58;;;1.35;;
13741;SDS011;8461;52.356;10.704;2022-07-24T15:01:31;3.25;;;1.77;;
13741;SDS011;8461;52.356;10.704;2022-07-24T15:03:57;2.03;;;1.85;;
13741;SDS011;8461;52.356;10.704;2022-07-24T15:06:22;2.40;;;1.55;;
13741;SDS011;8461;52.356;10.704;2022-07-24T15:08:48;1.83;;;1.63;;
13741;SDS011;8461;52.356;10.704;2022-07-24T15:11:13;2.00;;;1.80;;
13741;SDS011;8461;52.356;10.704;2022-07-24T15:13:39;2.28;;;1.50;;
13741;SDS011;8461;52.356;10.704;2022-07-24T15:16:05;1.90;;;1.48;;